Time;durP1;ratioP1;P1;durP2;ratioP2;P2;SDS_P1;SDS_P2;PMS_P1;PMS_P2;Temp;Humidity;BMP_temperature;BMP_pressure;BME280_temperature;BME280_humidity;BME280_pressure;Samples;Min_cycle;Max_cycle;Signal;HPM_P1;HPM_P2
2021/03/10 00:02:10;;;;;;;13.07;6.25;;;153.80;1024.00;;;;;;4875268;29;20038;-62
2021/03/10 00:04:36;;;;;;;12.13;6.30;;;153.80;1024.00;;;;;;4877561;29;20036;-63
2021/03/10 00:07:02;;;;;;;14.65;7.25;;;153.80;1024.00;;;;;;4873263;29;20237;-63
2021/03/10 00:09:27;;;;;;;14.27;7.13;;;153.80;1024.00;;;;;;4874994;29;20037;-62
2021/03/10 00:11:54;;;;;;;13.05;7.25;;;153.80;1049.60;;;;;;4872271;29;20041;-62
2021/03/10 00:14:20;;;;;;;14.45;7.30;;;153.80;1049.60;;;;;;4869883;29;20109;-62
2021/03/10 00:16:45;;;;;;;15.30;7.72;;;153.80;1049.60;;;;;;4872841;29;20505;-64
2021/03/10 00:19:11;;;;;;;13.75;7.07;;;153.70;1024.00;;;;;;4872153;29;20034;-63
2021/03/10 00:21:37;;;;;;;17.23;7.50;;;153.70;1024.00;;;;;;4853892;29;20045;-63
2021/03/10 00:24:03;;;;;;;12.00;6.82;;;153.70;1049.60;;;;;;4872821;29;20067;-62
2021/03/10 00:26:28;;;;;;;10.68;6.63;;;153.70;1049.60;;;;;;4864991;29;20112;-62
2021/03/10 00:28:54;;;;;;;14.00;7.38;;;153.70;1049.60;;;;;;4872293;29;20366;-65
2021/03/10 00:31:20;;;;;;;13.73;6.85;;;153.70;1049.60;;;;;;4870435;29;20043;-62
2021/03/10 00:33:45;;;;;;;12.10;7.20;;;153.70;1049.60;;;;;;4863312;29;20037;-62
2021/03/10 00:36:11;;;;;;;12.20;7.05;;;153.70;1049.60;;;;;;4864735;29;20398;-64
2021/03/10 00:38:37;;;;;;;13.38;6.95;;;153.70;1049.60;;;;;;4874711;29;20025;-61
2021/03/10 00:41:02;;;;;;;10.65;6.15;;;153.70;1049.60;;;;;;4877830;29;20037;-64
2021/03/10 00:43:28;;;;;;;12.77;6.90;;;153.60;1049.60;;;;;;4871994;29;20054;-62
2021/03/10 00:45:54;;;;;;;11.27;6.90;;;153.60;1049.60;;;;;;4875944;29;20040;-61
2021/03/10 00:48:20;;;;;;;14.02;7.43;;;153.60;1049.60;;;;;;4881903;29;20031;-62
2021/03/10 00:50:46;;;;;;;13.48;7.70;;;153.60;1049.60;;;;;;4880002;29;20021;-62
2021/03/10 00:53:12;;;;;;;11.82;7.20;;;153.60;1049.60;;;;;;4863195;29;20036;-63
2021/03/10 00:55:38;;;;;;;14.60;7.53;;;153.60;1049.60;;;;;;4878746;29;20150;-65
2021/03/10 00:58:03;;;;;;;15.10;8.07;;;153.60;1049.60;;;;;;4873473;29;20032;-62
2021/03/10 01:00:29;;;;;;;14.20;7.50;;;153.60;1049.60;;;;;;4863533;29;20589;-63
2021/03/10 01:02:55;;;;;;;13.07;7.63;;;153.60;1049.60;;;;;;4868325;29;20474;-62
2021/03/10 01:05:21;;;;;;;15.05;8.20;;;153.60;1075.20;;;;;;4865504;29;20120;-63
2021/03/10 01:07:47;;;;;;;11.93;6.82;;;153.60;1049.60;;;;;;4867897;29;20044;-64
2021/03/10 01:10:13;;;;;;;12.10;6.50;;;128.90;1049.60;;;;;;4875206;29;20029;-62
2021/03/10 01:12:39;;;;;;;12.75;7.38;;;128.90;1075.20;;;;;;4878877;29;20433;-62
2021/03/10 01:15:12;;;;;;;13.07;7.43;;;128.90;1075.20;;;;;;4871028;29;20409;-62
2021/03/10 01:17:38;;;;;;;12.75;6.95;;;128.90;1075.20;;;;;;4870850;29;20029;-61
2021/03/10 01:20:10;;;;;;;16.85;8.48;;;128.90;1075.20;;;;;;4866175;29;20025;-62
2021/03/10 01:22:36;;;;;;;15.40;8.85;;;153.60;1075.20;;;;;;4872965;29;20033;-62
2021/03/10 01:25:03;;;;;;;19.70;9.50;;;128.90;1075.20;;;;;;4878548;29;20057;-64
2021/03/10 01:27:29;;;;;;;15.32;7.82;;;128.90;1075.20;;;;;;4878042;29;20387;-61
2021/03/10 01:29:55;;;;;;;12.50;7.53;;;128.90;1075.20;;;;;;4871750;29;20547;-64
2021/03/10 01:32:21;;;;;;;14.73;7.53;;;128.90;1075.20;;;;;;4872387;29;20067;-61
2021/03/10 01:34:46;;;;;;;18.33;7.13;;;128.90;1075.20;;;;;;4869954;29;20046;-63
2021/03/10 01:37:12;;;;;;;11.95;7.47;;;128.90;1075.20;;;;;;4875934;29;20068;-61
2021/03/10 01:39:38;;;;;;;14.05;7.50;;;128.80;1075.20;;;;;;4872383;29;20498;-62
2021/03/10 01:42:04;;;;;;;16.55;7.53;;;128.80;1100.80;;;;;;4877261;29;20582;-62
2021/03/10 01:44:31;;;;;;;16.85;8.80;;;128.80;1100.80;;;;;;4875758;29;20040;-60
2021/03/10 01:46:57;;;;;;;11.05;7.15;;;128.80;1075.20;;;;;;4869576;29;20029;-63
2021/03/10 01:49:23;;;;;;;11.70;6.65;;;128.80;1075.20;;;;;;4870236;29;20026;-62
2021/03/10 01:51:49;;;;;;;12.23;6.40;;;128.80;1075.20;;;;;;4871834;29;20072;-61
2021/03/10 01:54:15;;;;;;;13.40;6.35;;;128.80;1075.20;;;;;;4871668;29;20052;-64
2021/03/10 01:56:43;;;;;;;11.60;6.80;;;128.80;1075.20;;;;;;4870208;29;20077;-61
2021/03/10 01:59:10;;;;;;;9.38;5.75;;;128.80;1075.20;;;;;;4868121;29;20026;-65
2021/03/10 02:01:36;;;;;;;12.10;7.45;;;128.70;1100.80;;;;;;4870806;29;20017;-62
2021/03/10 02:04:06;;;;;;;12.90;7.60;;;128.70;1100.80;;;;;;4872577;29;20092;-62
2021/03/10 02:06:51;;;;;;;16.75;8.10;;;128.70;1100.80;;;;;;4871782;29;20048;-63
2021/03/10 02:09:36;;;;;;;19.83;10.40;;;128.70;1100.80;;;;;;4867840;29;20040;-62
2021/03/10 02:12:14;;;;;;;17.55;9.00;;;128.70;1100.80;;;;;;4868913;29;20056;-65
2021/03/10 02:14:49;;;;;;;20.55;10.80;;;128.70;1100.80;;;;;;4870442;29;20092;-61
2021/03/10 02:17:19;;;;;;;34.70;15.20;;;128.70;1100.80;;;;;;4875105;29;20021;-62
2021/03/10 02:20:02;;;;;;;33.28;15.20;;;128.70;1100.80;;;;;;4880342;29;20060;-65
2021/03/10 02:22:50;;;;;;;28.75;12.75;;;128.60;1126.40;;;;;;4880601;29;20433;-61
2021/03/10 02:25:34;;;;;;;17.23;8.95;;;128.60;1126.40;;;;;;4880653;29;20040;-66
2021/03/10 02:28:02;;;;;;;16.27;8.00;;;128.60;1126.40;;;;;;4880489;29;20046;-61
2021/03/10 02:30:45;;;;;;;12.68;7.43;;;128.60;1100.80;;;;;;4880447;29;20165;-64
2021/03/10 02:33:14;;;;;;;12.07;6.50;;;128.60;1126.40;;;;;;4863977;29;20048;-61
2021/03/10 02:35:45;;;;;;;9.85;6.57;;;128.60;1126.40;;;;;;4879956;29;20577;-61
2021/03/10 02:38:15;;;;;;;10.77;6.35;;;128.60;1126.40;;;;;;4880132;29;20025;-62
2021/03/10 02:40:42;;;;;;;10.20;6.00;;;128.60;1126.40;;;;;;4880340;29;20037;-61
2021/03/10 02:43:09;;;;;;;12.57;6.13;;;128.60;1126.40;;;;;;4880179;29;20033;-61
2021/03/10 02:45:35;;;;;;;11.20;6.18;;;128.50;1126.40;;;;;;4879776;29;20498;-62
2021/03/10 02:48:03;;;;;;;10.60;6.18;;;128.50;1126.40;;;;;;4880155;29;20089;-61
2021/03/10 02:50:29;;;;;;;12.68;6.18;;;128.50;1126.40;;;;;;4880179;29;20045;-64
2021/03/10 02:52:57;;;;;;;11.43;6.22;;;128.50;1152.00;;;;;;4880164;29;20033;-61
2021/03/10 02:55:23;;;;;;;11.18;6.35;;;128.50;1126.40;;;;;;4879954;29;20089;-62
2021/03/10 02:57:49;;;;;;;13.43;6.97;;;128.50;1126.40;;;;;;4879601;29;20029;-64
2021/03/10 03:00:20;;;;;;;23.48;6.80;;;128.50;1126.40;;;;;;4880081;29;20029;-61
2021/03/10 03:02:45;;;;;;;14.10;6.90;;;128.50;1126.40;;;;;;4879993;29;20037;-64
2021/03/10 03:05:11;;;;;;;12.95;7.07;;;128.50;1126.40;;;;;;4879969;29;20033;-62
2021/03/10 03:07:41;;;;;;;14.25;6.95;;;128.50;1152.00;;;;;;4879945;29;20022;-65
2021/03/10 03:10:10;;;;;;;11.63;6.68;;;128.40;1126.40;;;;;;4880163;29;20033;-63
2021/03/10 03:12:39;;;;;;;13.68;7.70;;;128.40;1152.00;;;;;;4880431;29;20558;-65
2021/03/10 03:15:07;;;;;;;11.15;6.85;;;128.40;1126.40;;;;;;4879826;29;20505;-61
2021/03/10 03:17:34;;;;;;;15.02;7.97;;;128.40;1152.00;;;;;;4880044;29;20399;-62
2021/03/10 03:20:00;;;;;;;14.77;8.35;;;128.40;1152.00;;;;;;4879884;29;20037;-65
2021/03/10 03:22:26;;;;;;;16.63;8.30;;;128.40;1152.00;;;;;;4879914;29;20093;-62
2021/03/10 03:24:53;;;;;;;17.73;8.18;;;128.40;1152.00;;;;;;4879720;29;20029;-61
2021/03/10 03:27:26;;;;;;;14.48;7.45;;;128.40;1152.00;;;;;;4879998;29;20037;-62
2021/03/10 03:29:55;;;;;;;11.02;6.32;;;128.40;1126.40;;;;;;4879770;29;20112;-64
2021/03/10 03:32:23;;;;;;;12.80;6.38;;;128.40;1126.40;;;;;;4879807;29;20040;-65
2021/03/10 03:34:49;;;;;;;14.05;6.75;;;128.40;1126.40;;;;;;4879467;29;20080;-65
2021/03/10 03:37:15;;;;;;;12.90;6.65;;;128.40;1126.40;;;;;;4879740;29;20435;-62
2021/03/10 03:39:42;;;;;;;12.00;6.53;;;128.50;1126.40;;;;;;4879723;29;20510;-62
2021/03/10 03:42:08;;;;;;;12.10;6.68;;;128.40;1152.00;;;;;;4879810;29;20115;-63
2021/03/10 03:44:34;;;;;;;12.98;6.25;;;128.40;1152.00;;;;;;4879937;29;20087;-64
2021/03/10 03:47:01;;;;;;;11.50;6.47;;;128.40;1152.00;;;;;;4879583;29;20491;-61
2021/03/10 03:49:27;;;;;;;11.05;6.60;;;128.40;1152.00;;;;;;4879204;29;20043;-61
2021/03/10 03:51:52;;;;;;;14.35;7.07;;;128.40;1152.00;;;;;;4878418;29;20116;-64
2021/03/10 03:54:18;;;;;;;13.55;7.43;;;128.40;1152.00;;;;;;4879484;29;20038;-63
2021/03/10 03:56:44;;;;;;;13.98;6.97;;;128.40;1152.00;;;;;;4880485;29;20053;-64
2021/03/10 03:59:09;;;;;;;16.23;8.27;;;128.40;1152.00;;;;;;4883147;29;20036;-64
2021/03/10 04:01:35;;;;;;;17.45;9.10;;;128.40;1152.00;;;;;;4883008;29;20036;-60
2021/03/10 04:04:01;;;;;;;16.33;8.57;;;128.40;1152.00;;;;;;4883177;29;20033;-60
2021/03/10 04:06:26;;;;;;;19.67;9.40;;;128.40;1152.00;;;;;;4882938;29;20481;-65
2021/03/10 04:08:52;;;;;;;18.35;8.38;;;128.40;1177.60;;;;;;4882802;29;20033;-60
2021/03/10 04:11:18;;;;;;;15.30;8.00;;;128.40;1177.60;;;;;;4882777;29;20039;-60
2021/03/10 04:13:44;;;;;;;20.45;8.23;;;128.30;1203.20;;;;;;4882991;29;20107;-62
2021/03/10 04:16:10;;;;;;;18.05;8.18;;;128.30;1203.20;;;;;;4882846;29;20563;-60
2021/03/10 04:18:37;;;;;;;13.65;8.73;;;128.20;1203.20;;;;;;4882840;29;20032;-60
2021/03/10 04:21:07;;;;;;;12.45;7.75;;;128.20;1177.60;;;;;;4882755;29;20025;-60
2021/03/10 04:23:34;;;;;;;13.48;8.07;;;128.20;1177.60;;;;;;4882686;29;20104;-60
2021/03/10 04:25:59;;;;;;;13.35;8.20;;;128.30;1177.60;;;;;;4882941;29;20536;-60
2021/03/10 04:28:25;;;;;;;16.88;9.02;;;128.20;1177.60;;;;;;4882514;29;20025;-65
2021/03/10 04:30:51;;;;;;;14.27;8.45;;;128.20;1177.60;;;;;;4882722;29;20043;-60
2021/03/10 04:33:17;;;;;;;15.18;9.05;;;128.30;1203.20;;;;;;4882574;29;20036;-60
2021/03/10 04:35:42;;;;;;;18.77;10.07;;;128.30;1203.20;;;;;;4882057;29;20108;-60
2021/03/10 04:38:08;;;;;;;18.85;9.55;;;128.30;1203.20;;;;;;4882605;29;20033;-65
2021/03/10 04:40:34;;;;;;;22.25;9.38;;;128.20;1203.20;;;;;;4882569;29;20112;-60
2021/03/10 04:42:59;;;;;;;25.17;10.90;;;128.20;1203.20;;;;;;4882462;29;20108;-60
2021/03/10 04:45:25;;;;;;;21.50;11.52;;;128.20;1203.20;;;;;;4882370;29;20562;-65
2021/03/10 04:47:51;;;;;;;27.23;13.00;;;128.20;1228.80;;;;;;4882331;29;20029;-59
2021/03/10 04:50:17;;;;;;;18.85;11.02;;;128.10;1228.80;;;;;;4865504;29;20372;-64
2021/03/10 04:52:43;;;;;;;17.85;10.75;;;128.10;1203.20;;;;;;4882250;29;20100;-65
2021/03/10 04:55:10;;;;;;;21.40;9.82;;;128.00;1228.80;;;;;;4881569;29;20497;-60
2021/03/10 04:57:39;;;;;;;16.50;9.55;;;128.00;1228.80;;;;;;4881824;29;20036;-60
2021/03/10 05:00:07;;;;;;;19.67;10.98;;;128.00;1228.80;;;;;;4882044;29;20108;-60
2021/03/10 05:02:34;;;;;;;18.33;9.35;;;128.00;1228.80;;;;;;4882261;29;20029;-60
2021/03/10 05:05:00;;;;;;;14.60;8.95;;;128.00;1228.80;;;;;;4882051;29;20115;-64
2021/03/10 05:07:26;;;;;;;14.50;8.95;;;128.00;1228.80;;;;;;4881571;29;20060;-65
2021/03/10 05:09:52;;;;;;;18.23;9.35;;;128.00;1228.80;;;;;;4881643;29;20037;-60
2021/03/10 05:12:17;;;;;;;13.48;8.70;;;103.30;1203.20;;;;;;4881928;29;20033;-64
2021/03/10 05:14:43;;;;;;;15.23;8.77;;;103.30;1203.20;;;;;;4881780;29;20387;-59
2021/03/10 05:17:09;;;;;;;15.48;8.02;;;103.30;1228.80;;;;;;4881760;29;20487;-63
2021/03/10 05:19:34;;;;;;;16.30;8.65;;;103.30;1228.80;;;;;;4881860;29;20073;-64
2021/03/10 05:22:00;;;;;;;14.77;8.15;;;103.30;1203.20;;;;;;4881487;29;20470;-64
2021/03/10 05:24:26;;;;;;;14.40;7.97;;;103.30;1228.80;;;;;;4881163;29;20039;-65
2021/03/10 05:26:52;;;;;;;18.65;9.68;;;103.30;1203.20;;;;;;4881484;29;20112;-65
2021/03/10 05:29:18;;;;;;;22.75;10.75;;;103.30;1228.80;;;;;;4881575;29;20104;-65
2021/03/10 05:31:43;;;;;;;26.42;11.35;;;103.20;1203.20;;;;;;4881663;29;20041;-60
2021/03/10 05:34:09;;;;;;;27.95;12.43;;;103.20;1228.80;;;;;;4881545;29;20033;-60
2021/03/10 05:36:36;;;;;;;28.58;12.93;;;103.20;1228.80;;;;;;4880775;29;20053;-65
2021/03/10 05:39:03;;;;;;;23.08;11.80;;;103.20;1203.20;;;;;;4881499;29;20033;-65
2021/03/10 05:41:30;;;;;;;25.48;12.43;;;103.20;1228.80;;;;;;4881251;29;20029;-64
2021/03/10 05:43:58;;;;;;;27.15;13.18;;;103.20;1228.80;;;;;;4881286;29;20037;-65
2021/03/10 05:46:24;;;;;;;23.75;11.85;;;103.20;1228.80;;;;;;4881268;29;20041;-64
2021/03/10 05:48:51;;;;;;;27.17;12.55;;;103.20;1228.80;;;;;;4881400;29;20480;-65
2021/03/10 05:51:18;;;;;;;29.00;12.77;;;103.20;1228.80;;;;;;4880942;29;20384;-61
2021/03/10 05:53:45;;;;;;;33.67;16.30;;;103.30;1228.80;;;;;;4881053;29;20025;-65
2021/03/10 05:56:10;;;;;;;36.55;18.55;;;103.30;1228.80;;;;;;4881059;29;20434;-66
2021/03/10 05:58:36;;;;;;;47.13;22.90;;;103.30;1228.80;;;;;;4880871;29;20021;-65
2021/03/10 06:01:02;;;;;;;47.47;21.92;;;103.30;1228.80;;;;;;4881026;29;20032;-61
2021/03/10 06:03:28;;;;;;;44.35;21.70;;;128.00;1254.40;;;;;;4880977;29;20037;-62
2021/03/10 06:06:03;;;;;;;37.08;19.98;;;128.00;1254.40;;;;;;4880865;29;20029;-66
2021/03/10 06:08:29;;;;;;;;;;;128.00;1254.40;;;;;;4881078;29;20060;-65
2021/03/10 06:10:55;;;;;;;82.75;36.70;;;128.10;1254.40;;;;;;4880830;29;19965;-62
2021/03/10 06:13:25;;;;;;;88.03;41.40;;;128.10;1254.40;;;;;;4880602;29;20493;-63
2021/03/10 06:15:53;;;;;;;70.40;33.05;;;128.10;1254.40;;;;;;4880730;29;20055;-63
2021/03/10 06:18:24;;;;;;;69.32;32.53;;;128.10;1228.80;;;;;;4880705;29;20440;-64
2021/03/10 06:20:50;;;;;;;83.63;40.47;;;128.20;1254.40;;;;;;4880045;29;20053;-65
2021/03/10 06:23:16;;;;;;;94.75;45.75;;;128.20;1228.80;;;;;;4880666;29;20100;-64
2021/03/10 06:25:42;;;;;;;78.88;39.38;;;128.30;1254.40;;;;;;4880421;29;20029;-64
2021/03/10 06:28:08;;;;;;;73.10;33.28;;;128.30;1228.80;;;;;;4880436;29;20025;-66
2021/03/10 06:30:36;;;;;;;59.60;29.67;;;128.40;1228.80;;;;;;4880465;29;20540;-65
2021/03/10 06:33:03;;;;;;;58.20;28.52;;;128.40;1228.80;;;;;;4880412;29;20120;-64
2021/03/10 06:35:30;;;;;;;48.63;25.73;;;128.40;1228.80;;;;;;4880015;29;20057;-64
2021/03/10 06:38:25;;;;;;;52.78;28.35;;;128.50;1228.80;;;;;;4880466;29;20065;-63
2021/03/10 06:40:52;;;;;;;59.67;30.17;;;128.50;1228.80;;;;;;4823449;29;20516;-64
2021/03/10 06:43:19;;;;;;;64.07;31.33;;;128.50;1228.80;;;;;;4823155;29;20449;-66
2021/03/10 06:45:44;;;;;;;54.88;28.05;;;128.60;1228.80;;;;;;4823016;29;20104;-65
2021/03/10 06:48:23;;;;;;;56.38;28.38;;;128.60;1228.80;;;;;;4807930;29;20034;-64
2021/03/10 06:50:49;;;;;;;59.63;29.65;;;128.60;1228.80;;;;;;4823002;29;20046;-65
2021/03/10 06:53:15;;;;;;;55.85;28.75;;;128.70;1228.80;;;;;;4823133;29;20038;-66
2021/03/10 06:55:45;;;;;;;50.20;26.30;;;128.80;1228.80;;;;;;4823017;29;20057;-65
2021/03/10 06:58:21;;;;;;;61.80;25.25;;;128.90;1203.20;;;;;;4823093;29;20115;-64
2021/03/10 07:00:47;;;;;;;72.72;30.58;;;128.90;1203.20;;;;;;4808863;29;20091;-64
2021/03/10 07:03:14;;;;;;;66.60;27.83;;;128.90;1228.80;;;;;;4822983;29;20043;-65
2021/03/10 07:05:41;;;;;;;58.15;27.13;;;153.60;1228.80;;;;;;4822796;29;20145;-64
2021/03/10 07:08:07;;;;;;;65.65;26.85;;;153.60;1228.80;;;;;;4822909;29;20039;-64
2021/03/10 07:10:35;;;;;;;65.20;28.92;;;153.60;1228.80;;;;;;4822818;29;20072;-65
2021/03/10 07:13:00;;;;;;;62.25;29.42;;;153.60;1228.80;;;;;;4823009;29;20030;-64
2021/03/10 07:15:28;;;;;;;61.55;28.88;;;153.80;1203.20;;;;;;4823039;29;20034;-64
2021/03/10 07:17:54;;;;;;;69.28;30.50;;;153.80;1203.20;;;;;;4867361;29;20041;-65
2021/03/10 07:20:21;;;;;;;64.60;30.75;;;153.90;1203.20;;;;;;4879992;29;20032;-64
2021/03/10 07:23:10;;;;;;;61.80;29.20;;;153.90;1203.20;;;;;;4879913;29;20104;-64
2021/03/10 07:25:43;;;;;;;64.20;30.95;;;153.90;1203.20;;;;;;4879922;29;20032;-64
2021/03/10 07:28:28;;;;;;;68.85;31.05;;;154.00;1203.20;;;;;;4879913;29;20407;-65
2021/03/10 07:30:54;;;;;;;78.85;35.58;;;154.10;1203.20;;;;;;4881065;29;20028;-65
2021/03/10 07:33:22;;;;;;;78.03;35.88;;;154.10;1203.20;;;;;;4883432;29;20129;-65
2021/03/10 07:35:53;;;;;;;63.33;31.50;;;154.30;1203.20;;;;;;4881996;29;20053;-63
2021/03/10 07:38:22;;;;;;;63.05;30.77;;;154.50;1177.60;;;;;;4883884;29;20370;-67
2021/03/10 07:40:59;;;;;;;61.05;29.80;;;179.30;1152.00;;;;;;4883509;29;20368;-66
2021/03/10 07:43:37;;;;;;;55.40;26.73;;;179.50;1100.80;;;;;;4883532;29;20051;-65
2021/03/10 07:46:04;;;;;;;52.45;26.75;;;179.80;1100.80;;;;;;4883209;29;20037;-66
2021/03/10 07:48:34;;;;;;;53.53;27.55;;;204.80;1075.20;;;;;;4883355;29;20037;-66
2021/03/10 07:51:00;;;;;;;45.67;24.10;;;205.10;1049.60;;;;;;4883565;29;20029;-64
2021/03/10 07:53:38;;;;;;;46.35;25.80;;;205.30;1024.00;;;;;;4883263;29;20037;-66
2021/03/10 07:56:05;;;;;;;36.08;20.73;;;205.60;998.40;;;;;;4883217;29;20044;-66
2021/03/10 07:58:32;;;;;;;30.98;17.27;;;230.50;972.80;;;;;;4883263;29;20040;-65
2021/03/10 08:00:59;;;;;;;23.73;12.93;;;230.70;947.20;;;;;;4883092;29;20127;-65
2021/03/10 08:03:34;;;;;;;30.55;15.02;;;230.90;896.00;;;;;;4882963;29;20077;-66
2021/03/10 08:06:04;;;;;;;28.23;12.85;;;231.20;896.00;;;;;;4883052;29;20037;-67
2021/03/10 08:08:41;;;;;;;37.63;17.20;;;256.00;844.80;;;;;;4883036;29;20029;-66
2021/03/10 08:11:10;;;;;;;31.02;17.40;;;256.30;819.20;;;;;;4882965;29;20044;-67
2021/03/10 08:13:36;;;;;;;59.67;26.75;;;256.50;819.20;;;;;;4881691;29;20420;-66
2021/03/10 08:16:04;;;;;;;83.13;34.92;;;256.70;793.60;;;;;;4882601;29;20101;-65
2021/03/10 08:18:32;;;;;;;65.10;28.65;;;256.90;768.00;;;;;;4882689;29;20357;-67
2021/03/10 08:21:19;;;;;;;44.08;21.15;;;281.80;768.00;;;;;;4882883;29;20393;-67
2021/03/10 08:23:46;;;;;;;34.75;13.95;;;281.90;768.00;;;;;;4882311;29;20442;-67
2021/03/10 08:26:16;;;;;;;35.72;15.57;;;281.90;768.00;;;;;;4882692;29;20412;-66
2021/03/10 08:28:42;;;;;;;24.50;11.95;;;281.90;768.00;;;;;;4882963;29;20025;-67
2021/03/10 08:31:10;;;;;;;20.17;10.48;;;281.90;768.00;;;;;;4882532;29;20029;-67
2021/03/10 08:33:46;;;;;;;22.58;10.77;;;282.00;768.00;;;;;;4882438;29;20041;-66
2021/03/10 08:36:12;;;;;;;23.90;10.73;;;282.10;768.00;;;;;;4882090;29;20049;-67
2021/03/10 08:38:38;;;;;;;20.10;10.63;;;282.30;768.00;;;;;;4882266;29;20085;-67
2021/03/10 08:41:08;;;;;;;22.45;11.93;;;282.30;742.40;;;;;;4882475;29;20475;-66
2021/03/10 08:43:34;;;;;;;25.25;12.52;;;282.50;742.40;;;;;;4881624;29;20037;-67
2021/03/10 08:46:00;;;;;;;24.40;10.75;;;307.30;742.40;;;;;;4881950;29;20450;-67
2021/03/10 08:48:34;;;;;;;38.20;18.92;;;307.50;742.40;;;;;;4880770;29;20029;-67
2021/03/10 08:51:04;;;;;;;30.67;16.83;;;307.60;716.80;;;;;;4870477;29;20391;-64
2021/03/10 08:53:31;;;;;;;33.28;17.08;;;307.80;716.80;;;;;;4879125;29;20441;-66
2021/03/10 08:56:07;;;;;;;23.85;12.75;;;307.90;716.80;;;;;;4881044;29;20099;-63
2021/03/10 08:58:33;;;;;;;18.70;9.93;;;308.00;691.20;;;;;;4881188;29;20440;-66
2021/03/10 09:00:59;;;;;;;22.25;10.93;;;308.10;691.20;;;;;;4880662;29;20084;-63
2021/03/10 09:03:25;;;;;;;18.40;11.25;;;332.80;691.20;;;;;;4871888;29;20029;-63
2021/03/10 09:05:52;;;;;;;16.27;9.85;;;333.00;691.20;;;;;;4869341;29;20391;-63
2021/03/10 09:08:23;;;;;;;13.05;8.68;;;333.10;716.80;;;;;;4870404;29;20504;-61
2021/03/10 09:10:54;;;;;;;33.35;9.50;;;333.30;691.20;;;;;;4864372;29;20240;-66
2021/03/10 09:13:23;;;;;;;38.03;8.63;;;333.50;691.20;;;;;;4862235;29;20022;-66
2021/03/10 09:15:50;;;;;;;10.82;6.57;;;333.60;665.60;;;;;;4861602;29;20037;-67
2021/03/10 09:18:16;;;;;;;12.05;7.07;;;333.70;640.00;;;;;;4862022;29;20026;-67
2021/03/10 09:20:45;;;;;;;13.63;8.18;;;358.50;640.00;;;;;;4862174;29;20033;-66
2021/03/10 09:23:11;;;;;;;22.83;11.88;;;358.60;640.00;;;;;;4861806;29;20025;-68
2021/03/10 09:25:41;;;;;;;24.40;13.18;;;358.70;640.00;;;;;;4862012;29;20054;-65
2021/03/10 09:28:16;;;;;;;47.63;26.77;;;358.80;640.00;;;;;;4862349;29;20034;-67
2021/03/10 09:30:45;;;;;;;19.02;11.82;;;358.80;640.00;;;;;;4862357;29;20033;-67
2021/03/10 09:33:25;;;;;;;17.42;9.73;;;358.80;640.00;;;;;;4861997;29;20044;-66
2021/03/10 09:36:02;;;;;;;38.28;23.25;;;358.90;640.00;;;;;;4861722;29;20407;-68
2021/03/10 09:38:29;;;;;;;20.05;11.88;;;358.90;614.40;;;;;;4861245;29;20037;-67
2021/03/10 09:41:03;;;;;;;16.67;10.05;;;359.00;588.80;;;;;;4861163;29;20108;-65
2021/03/10 09:43:31;;;;;;;18.30;9.43;;;359.00;614.40;;;;;;4860357;29;20029;-68
2021/03/10 09:46:08;;;;;;;11.60;7.97;;;359.10;588.80;;;;;;4861364;29;20037;-68
2021/03/10 09:48:37;;;;;;;94.80;52.25;;;359.20;614.40;;;;;;4861791;29;20049;-68
2021/03/10 09:51:15;;;;;;;28.05;16.40;;;359.20;614.40;;;;;;4861631;29;20045;-68
2021/03/10 09:53:48;;;;;;;17.05;10.18;;;359.30;614.40;;;;;;4861046;29;20530;-65
2021/03/10 09:56:16;;;;;;;17.77;8.75;;;384.00;563.20;;;;;;4861168;29;20444;-68
2021/03/10 09:58:48;;;;;;;15.43;7.97;;;384.00;588.80;;;;;;4860946;29;20506;-65
2021/03/10 10:01:14;;;;;;;16.00;7.85;;;359.30;588.80;;;;;;4861422;29;20037;-68
2021/03/10 10:03:40;;;;;;;12.80;7.90;;;359.10;588.80;;;;;;4860680;29;20507;-67
2021/03/10 10:06:07;;;;;;;15.05;8.65;;;359.10;588.80;;;;;;4861030;29;20060;-67
2021/03/10 10:08:38;;;;;;;13.05;7.82;;;358.90;588.80;;;;;;4861436;29;20034;-67
2021/03/10 10:11:12;;;;;;;23.05;7.15;;;359.00;614.40;;;;;;4861717;29;20036;-67
2021/03/10 10:13:47;;;;;;;17.77;8.40;;;359.10;614.40;;;;;;4860712;29;20025;-68
2021/03/10 10:16:14;;;;;;;12.43;6.53;;;359.20;588.80;;;;;;4861158;29;20044;-68
2021/03/10 10:18:41;;;;;;;10.45;6.45;;;359.30;588.80;;;;;;4861353;29;20034;-66
2021/03/10 10:21:06;;;;;;;11.07;6.75;;;359.30;588.80;;;;;;4860633;29;20396;-68
2021/03/10 10:23:32;;;;;;;16.77;9.95;;;384.00;588.80;;;;;;4861356;29;20059;-68
2021/03/10 10:25:58;;;;;;;16.73;9.88;;;384.10;588.80;;;;;;4860919;29;20480;-68
2021/03/10 10:28:24;;;;;;;15.20;9.75;;;384.20;588.80;;;;;;4860508;29;20092;-68
2021/03/10 10:30:51;;;;;;;36.67;22.98;;;384.30;588.80;;;;;;4860543;29;20502;-68
2021/03/10 10:33:17;;;;;;;37.67;25.08;;;384.40;588.80;;;;;;4860585;29;20029;-68
2021/03/10 10:35:42;;;;;;;34.38;24.27;;;384.50;588.80;;;;;;4860165;29;20105;-67
2021/03/10 10:38:08;;;;;;;25.13;16.38;;;384.50;588.80;;;;;;4860965;29;20073;-69
2021/03/10 10:40:35;;;;;;;30.67;19.38;;;384.50;563.20;;;;;;4860929;29;20380;-64
2021/03/10 10:43:00;;;;;;;24.85;16.45;;;384.30;563.20;;;;;;4860751;29;20040;-66
2021/03/10 10:45:26;;;;;;;34.20;24.30;;;384.20;588.80;;;;;;4860444;29;20026;-66
2021/03/10 10:47:52;;;;;;;32.55;15.57;;;384.10;588.80;;;;;;4860814;29;20041;-68
2021/03/10 10:50:17;;;;;;;16.58;10.95;;;359.30;614.40;;;;;;4844075;29;20072;-66
2021/03/10 10:52:48;;;;;;;14.10;9.07;;;359.30;614.40;;;;;;4860289;29;20036;-67
2021/03/10 10:55:19;;;;;;;19.25;10.43;;;359.20;614.40;;;;;;4860751;29;20037;-68
2021/03/10 10:57:46;;;;;;;19.27;13.35;;;359.30;614.40;;;;;;4841800;29;20030;-68
2021/03/10 11:00:16;;;;;;;22.08;10.05;;;384.00;614.40;;;;;;4860149;29;20022;-68
2021/03/10 11:02:43;;;;;;;16.50;9.40;;;384.20;614.40;;;;;;4860603;29;20034;-67
2021/03/10 11:05:09;;;;;;;14.57;9.32;;;384.20;588.80;;;;;;4859799;29;20369;-68
2021/03/10 11:07:35;;;;;;;19.42;11.35;;;384.20;588.80;;;;;;4860717;29;20109;-68
2021/03/10 11:10:01;;;;;;;18.15;12.57;;;384.20;588.80;;;;;;4860744;29;20037;-68
2021/03/10 11:12:26;;;;;;;22.77;12.02;;;384.00;588.80;;;;;;4860058;29;20030;-66
2021/03/10 11:14:52;;;;;;;28.05;16.40;;;359.30;614.40;;;;;;4860472;29;20096;-68
2021/03/10 11:17:18;;;;;;;26.77;17.73;;;359.10;614.40;;;;;;4860718;29;20034;-68
2021/03/10 11:19:43;;;;;;;34.78;22.20;;;359.10;614.40;;;;;;4859601;29;20577;-66
2021/03/10 11:22:09;;;;;;;77.20;41.10;;;359.10;614.40;;;;;;4860823;29;20026;-68
2021/03/10 11:24:35;;;;;;;81.80;45.10;;;359.20;588.80;;;;;;4860417;29;20034;-68
2021/03/10 11:27:02;;;;;;;29.67;15.73;;;384.00;588.80;;;;;;4859934;29;20037;-68
2021/03/10 11:29:27;;;;;;;22.25;12.43;;;384.20;614.40;;;;;;4860441;29;20025;-68
2021/03/10 11:31:53;;;;;;;105.22;51.17;;;384.20;588.80;;;;;;4860012;29;20463;-67
2021/03/10 11:34:19;;;;;;;48.03;26.80;;;384.10;588.80;;;;;;4859731;29;20026;-65
2021/03/10 11:36:48;;;;;;;62.65;32.47;;;384.10;588.80;;;;;;4860304;29;20041;-68
2021/03/10 11:39:15;;;;;;;39.15;22.10;;;384.20;588.80;;;;;;4860130;29;20029;-62
2021/03/10 11:41:41;;;;;;;44.65;25.27;;;384.10;563.20;;;;;;4860022;29;20133;-67
2021/03/10 11:44:07;;;;;;;51.63;27.17;;;359.30;588.80;;;;;;4860196;29;20029;-68
2021/03/10 11:46:33;;;;;;;27.40;16.08;;;359.10;614.40;;;;;;4860097;29;20464;-67
2021/03/10 11:48:59;;;;;;;22.55;14.52;;;359.00;614.40;;;;;;4859734;29;20112;-67
2021/03/10 11:51:25;;;;;;;29.40;16.75;;;358.90;614.40;;;;;;4860424;29;20036;-68
2021/03/10 11:53:51;;;;;;;28.70;16.38;;;358.80;614.40;;;;;;4860183;29;20033;-67
2021/03/10 11:56:17;;;;;;;16.98;11.55;;;358.70;614.40;;;;;;4859646;29;20048;-68
2021/03/10 11:58:43;;;;;;;23.48;11.88;;;358.70;614.40;;;;;;4860153;29;20030;-67
2021/03/10 12:01:09;;;;;;;20.45;12.52;;;358.60;614.40;;;;;;4860172;29;20071;-68
2021/03/10 12:03:35;;;;;;;22.17;13.05;;;358.50;614.40;;;;;;4859362;29;20040;-64
2021/03/10 12:06:01;;;;;;;22.50;12.13;;;358.40;614.40;;;;;;4860109;29;20436;-68
2021/03/10 12:08:27;;;;;;;17.20;10.90;;;333.60;640.00;;;;;;4860023;29;20029;-67
2021/03/10 12:10:53;;;;;;;15.50;10.48;;;333.50;640.00;;;;;;4858356;29;20500;-66